Time;durP1;ratioP1;P1;durP2;ratioP2;P2;SDS_P1;SDS_P2;PMS_P1;PMS_P2;Temp;Humidity;BMP_temperature;BMP_pressure;BME280_temperature;BME280_humidity;BME280_pressure;Samples;Min_cycle;Max_cycle;Signal;HPM_P1;HPM_P2
2021/09/27 00:00:45;;;;;;;17.40;7.30;;;;;;;15.06;78.46;100585.27;114159;1197;22772;-78
2021/09/27 00:03:16;;;;;;;17.10;8.10;;;;;;;15.01;78.47;100590.08;113966;1197;22466;-78
2021/09/27 00:05:48;;;;;;;16.00;7.60;;;;;;;14.97;78.44;100591.10;113854;1197;25369;-78
2021/09/27 00:08:22;;;;;;;16.70;8.00;;;;;;;14.93;78.33;100588.61;113843;1190;24571;-78
2021/09/27 00:10:55;;;;;;;18.00;7.30;;;;;;;14.90;78.39;100582.70;114136;1197;22386;-80
2021/09/27 00:13:32;;;;;;;18.10;8.10;;;;;;;14.86;78.43;100583.23;114425;1197;22452;-78
2021/09/27 00:16:04;;;;;;;17.00;7.80;;;;;;;14.81;78.29;100579.22;113841;1197;24158;-78
2021/09/27 00:18:35;;;;;;;17.40;7.90;;;;;;;14.78;78.40;100577.40;114029;1197;22433;-79
2021/09/27 00:21:09;;;;;;;18.80;7.90;;;;;;;14.76;78.38;100578.73;114113;1197;22418;-78
2021/09/27 00:23:40;;;;;;;16.60;7.60;;;;;;;14.73;78.50;100575.08;114156;1197;25113;-78
2021/09/27 00:26:11;;;;;;;17.40;8.20;;;;;;;14.68;78.56;100571.23;114090;1197;22499;-79
2021/09/27 00:28:42;;;;;;;15.40;7.40;;;;;;;14.66;78.49;100572.05;114057;1197;22461;-79
2021/09/27 00:31:14;;;;;;;18.10;7.50;;;;;;;14.64;78.57;100570.05;114129;1197;25020;-78
2021/09/27 00:33:45;;;;;;;16.10;7.90;;;;;;;14.61;78.70;100574.16;114208;1197;22423;-79
2021/09/27 00:36:17;;;;;;;18.00;7.90;;;;;;;14.58;78.72;100575.05;114185;1197;22457;-78
2021/09/27 00:38:49;;;;;;;16.20;7.90;;;;;;;14.55;78.60;100574.77;113885;1197;24062;-79
2021/09/27 00:41:22;;;;;;;18.30;8.00;;;;;;;14.51;78.79;100575.50;113917;1197;22997;-78
2021/09/27 00:43:54;;;;;;;19.40;8.80;;;;;;;14.48;78.69;100580.28;114191;1197;22438;-79
2021/09/27 00:46:27;;;;;;;17.80;7.90;;;;;;;14.45;78.86;100582.71;114207;1197;24161;-79
2021/09/27 00:49:00;;;;;;;17.20;8.30;;;;;;;14.41;78.86;100579.96;113890;1197;22444;-78
2021/09/27 00:51:53;;;;;;;17.20;7.60;;;;;;;14.38;78.90;100578.41;114146;1197;22715;-79
2021/09/27 00:54:30;;;;;;;18.50;9.10;;;;;;;14.36;78.95;100581.36;114703;1197;22555;-79
2021/09/27 00:57:07;;;;;;;19.10;8.90;;;;;;;14.35;79.12;100581.03;114098;1197;22441;-78
2021/09/27 00:59:40;;;;;;;20.20;8.40;;;;;;;14.31;79.21;100579.48;114093;1197;22890;-79
2021/09/27 01:02:15;;;;;;;19.50;9.10;;;;;;;14.30;79.16;100580.44;114164;1197;22438;-79
2021/09/27 01:04:46;;;;;;;18.70;8.20;;;;;;;14.30;79.11;100580.95;114228;1197;25127;-79
2021/09/27 01:07:30;;;;;;;18.00;8.90;;;;;;;14.29;79.42;100577.88;114186;1197;22423;-79
2021/09/27 01:10:26;;;;;;;18.90;8.90;;;;;;;14.27;79.34;100572.51;114256;1197;22452;-79
2021/09/27 01:13:26;;;;;;;19.90;9.20;;;;;;;14.24;79.40;100572.79;114229;1197;23158;-79
2021/09/27 01:16:09;;;;;;;19.20;8.60;;;;;;;14.21;79.63;100573.06;114124;1197;22462;-79
2021/09/27 01:18:58;;;;;;;17.90;8.50;;;;;;;14.18;79.39;100573.56;114085;1197;22426;-79
2021/09/27 01:21:48;;;;;;;17.30;8.80;;;;;;;14.16;79.36;100570.35;114151;1197;26288;-79
2021/09/27 01:24:49;;;;;;;18.30;8.40;;;;;;;14.14;79.20;100569.16;113952;1187;24054;-79
2021/09/27 01:27:46;;;;;;;15.70;7.60;;;;;;;14.12;79.22;100565.68;114113;1197;24570;-79
2021/09/27 01:30:38;;;;;;;17.70;8.70;;;;;;;14.09;79.30;100561.00;114631;1184;23701;-79
2021/09/27 01:33:12;;;;;;;21.30;9.20;;;;;;;14.05;79.25;100558.41;114898;1197;22419;-79
2021/09/27 01:35:52;;;;;;;18.20;8.30;;;;;;;14.02;79.23;100558.70;114965;1197;22438;-78
2021/09/27 01:38:30;;;;;;;21.50;8.50;;;;;;;14.01;79.07;100560.31;114590;1197;22442;-79
2021/09/27 01:41:16;;;;;;;20.30;9.10;;;;;;;13.98;79.20;100561.91;114510;1197;24543;-79
2021/09/27 01:43:57;;;;;;;18.90;9.10;;;;;;;13.94;79.26;100559.88;114154;1190;22424;-79
2021/09/27 01:46:32;;;;;;;17.90;8.90;;;;;;;13.91;79.39;100561.94;114181;1183;22965;-79
2021/09/27 01:49:08;;;;;;;19.80;8.60;;;;;;;13.89;79.36;100560.79;114207;1190;24159;-79
2021/09/27 01:51:50;;;;;;;18.60;8.50;;;;;;;13.88;79.35;100563.02;114156;1197;22442;-79
2021/09/27 01:54:29;;;;;;;23.20;10.00;;;;;;;13.87;79.29;100561.39;114115;1197;22436;-80
2021/09/27 01:57:10;;;;;;;20.20;8.20;;;;;;;13.85;79.29;100561.17;114172;1197;25314;-79
2021/09/27 01:59:52;;;;;;;20.50;9.60;;;;;;;13.84;79.32;100566.61;114189;1197;23401;-79
2021/09/27 02:02:29;;;;;;;19.50;10.10;;;;;;;13.83;79.37;100564.45;114014;1198;22412;-77
2021/09/27 02:05:11;;;;;;;17.10;8.60;;;;;;;13.81;79.54;100567.04;113890;1197;22557;-76
2021/09/27 02:07:49;;;;;;;20.50;9.60;;;;;;;13.80;79.35;100563.35;113838;1197;22430;-77
2021/09/27 02:10:30;;;;;;;21.10;10.00;;;;;;;13.78;79.42;100567.83;113873;1197;24171;-77
2021/09/27 02:13:08;;;;;;;22.60;10.10;;;;;;;13.76;79.63;100563.06;113880;1197;24129;-76
2021/09/27 02:15:46;;;;;;;18.40;9.60;;;;;;;13.74;79.77;100563.19;113806;1197;22511;-77
2021/09/27 02:18:24;;;;;;;22.70;9.60;;;;;;;13.74;79.76;100569.55;113828;1197;22426;-77
2021/09/27 02:21:03;;;;;;;20.70;10.30;;;;;;;13.71;79.77;100568.98;113888;1197;22417;-76
2021/09/27 02:23:41;;;;;;;22.90;10.00;;;;;;;13.70;79.91;100564.05;113823;1197;22412;-78
2021/09/27 02:26:14;;;;;;;21.40;11.00;;;;;;;13.70;80.19;100561.16;113799;1197;22541;-78
2021/09/27 02:28:46;;;;;;;25.30;11.80;;;;;;;13.71;80.53;100560.91;113814;1197;24057;-77
2021/09/27 02:31:32;;;;;;;23.00;12.20;;;;;;;13.71;80.49;100558.33;113759;1197;25212;-78
2021/09/27 02:34:08;;;;;;;24.00;11.20;;;;;;;13.70;80.46;100558.15;113781;1197;24060;-78
2021/09/27 02:36:45;;;;;;;25.30;13.70;;;;;;;13.70;80.92;100552.69;113866;1197;22443;-78
2021/09/27 02:39:23;;;;;;;26.40;13.30;;;;;;;13.69;81.33;100549.31;113773;1197;22450;-78
2021/09/27 02:42:01;;;;;;;25.30;12.80;;;;;;;13.69;81.15;100548.85;113811;1197;22476;-77
2021/09/27 02:44:32;;;;;;;22.80;11.90;;;;;;;13.69;81.08;100542.27;113819;1197;24602;-77
2021/09/27 02:47:06;;;;;;;27.30;12.80;;;;;;;13.69;81.44;100544.31;113799;1197;22554;-77
2021/09/27 02:49:44;;;;;;;28.70;12.60;;;;;;;13.69;81.46;100543.64;113806;1197;22551;-78
2021/09/27 02:52:19;;;;;;;23.30;12.90;;;;;;;13.69;81.52;100545.58;113788;1197;22412;-77
2021/09/27 02:54:55;;;;;;;25.00;11.60;;;;;;;13.66;81.48;100537.39;113872;1197;22451;-78
2021/09/27 02:57:54;;;;;;;24.60;12.40;;;;;;;13.66;81.60;100537.17;113781;1197;22406;-78
2021/09/27 03:00:33;;;;;;;24.00;13.40;;;;;;;13.66;81.70;100537.64;113780;1197;22434;-78
2021/09/27 03:03:14;;;;;;;25.50;12.60;;;;;;;13.64;81.66;100536.30;113755;1197;22470;-78
2021/09/27 03:06:04;;;;;;;24.30;12.50;;;;;;;13.63;81.57;100536.02;113862;1197;25220;-77
2021/09/27 03:08:52;;;;;;;25.60;12.90;;;;;;;13.61;81.52;100536.60;113770;1197;24016;-77
2021/09/27 03:11:54;;;;;;;24.30;12.00;;;;;;;13.58;81.61;100537.84;113841;1197;24204;-78
2021/09/27 03:14:36;;;;;;;27.60;14.40;;;;;;;13.54;81.68;100538.20;113945;1197;26355;-78
2021/09/27 03:17:15;;;;;;;24.20;12.70;;;;;;;13.50;81.69;100540.14;113915;1198;22423;-78
2021/09/27 03:20:12;;;;;;;23.00;12.50;;;;;;;13.47;81.81;100534.63;113804;1197;24102;-77
2021/09/27 03:22:55;;;;;;;23.80;13.20;;;;;;;13.44;81.66;100534.92;113851;1197;22553;-77
2021/09/27 03:25:42;;;;;;;26.90;13.30;;;;;;;13.40;81.80;100536.98;113826;1197;23114;-78
2021/09/27 03:28:20;;;;;;;25.70;13.80;;;;;;;13.38;81.69;100539.09;113834;1197;24041;-77
2021/09/27 03:31:00;;;;;;;27.00;14.00;;;;;;;13.36;81.90;100541.16;113792;1197;22538;-78
2021/09/27 03:33:41;;;;;;;25.70;13.60;;;;;;;13.35;81.81;100540.17;113753;1197;22458;-78
2021/09/27 03:36:36;;;;;;;27.70;14.10;;;;;;;13.33;82.01;100531.48;113864;1197;23089;-78
2021/09/27 03:39:16;;;;;;;29.50;16.00;;;;;;;13.34;82.18;100529.41;113892;1197;25214;-78
2021/09/27 03:41:50;;;;;;;29.50;17.00;;;;;;;13.36;82.18;100526.02;113847;1197;25093;-77
2021/09/27 03:44:30;;;;;;;31.80;17.80;;;;;;;13.37;82.47;100524.40;113808;1197;25024;-78
2021/09/27 03:47:07;;;;;;;30.10;16.50;;;;;;;13.40;82.61;100528.34;113728;1197;24067;-78
2021/09/27 03:49:49;;;;;;;32.90;18.10;;;;;;;13.41;82.61;100523.73;113810;1197;25999;-77
2021/09/27 03:52:26;;;;;;;31.30;17.30;;;;;;;13.43;82.79;100517.73;113825;1197;22914;-78
2021/09/27 03:55:02;;;;;;;34.70;17.90;;;;;;;13.45;82.89;100521.04;113689;1198;24998;-78
2021/09/27 03:57:39;;;;;;;35.10;19.50;;;;;;;13.47;82.86;100518.50;113800;1197;23221;-78
2021/09/27 04:00:13;;;;;;;33.60;18.20;;;;;;;13.49;82.93;100520.92;113764;1197;23347;-78
2021/09/27 04:02:54;;;;;;;32.70;18.90;;;;;;;13.50;83.10;100522.91;113878;1197;22427;-78
2021/09/27 04:05:56;;;;;;;30.20;17.90;;;;;;;13.51;83.03;100521.35;113802;1197;23985;-78
2021/09/27 04:08:40;;;;;;;31.80;17.30;;;;;;;13.50;83.17;100519.77;113758;1197;23325;-78
2021/09/27 04:11:29;;;;;;;34.30;17.90;;;;;;;13.50;83.21;100518.09;113851;1197;22491;-77
2021/09/27 04:14:11;;;;;;;33.10;18.40;;;;;;;13.50;83.17;100517.88;113772;1197;22433;-77
2021/09/27 04:16:47;;;;;;;27.50;16.00;;;;;;;13.50;83.25;100515.32;113763;1197;22441;-78
2021/09/27 04:19:29;;;;;;;30.80;16.50;;;;;;;13.49;83.16;100519.39;113791;1197;25117;-77
2021/09/27 04:22:08;;;;;;;32.70;17.70;;;;;;;13.48;83.26;100519.48;113741;1198;22629;-77
2021/09/27 04:24:49;;;;;;;32.00;19.20;;;;;;;13.48;83.31;100514.22;113756;1197;27392;-77
2021/09/27 04:27:43;;;;;;;30.00;16.50;;;;;;;13.48;83.32;100517.09;113808;1197;22459;-77
2021/09/27 04:30:51;;;;;;;33.20;17.90;;;;;;;13.48;83.19;100513.42;113855;1197;25370;-77
2021/09/27 04:33:39;;;;;;;36.00;18.80;;;;;;;13.50;83.60;100511.70;113822;1197;22435;-76
2021/09/27 04:36:18;;;;;;;33.70;18.90;;;;;;;13.51;83.53;100513.70;113916;1195;25139;-78
2021/09/27 04:38:55;;;;;;;38.00;19.60;;;;;;;13.53;83.64;100517.65;114074;1197;22418;-78
2021/09/27 04:41:45;;;;;;;34.60;18.60;;;;;;;13.57;83.91;100520.23;113851;1197;26245;-77
2021/09/27 04:44:29;;;;;;;37.40;20.90;;;;;;;13.58;83.92;100521.69;113888;1198;24085;-77
2021/09/27 04:47:09;;;;;;;37.90;21.40;;;;;;;13.60;83.94;100524.81;113820;1197;22441;-76
2021/09/27 04:50:03;;;;;;;35.60;19.30;;;;;;;13.61;83.93;100536.10;113992;1197;22856;-77
2021/09/27 04:53:09;;;;;;;34.90;18.10;;;;;;;13.62;84.01;100542.38;113766;1197;22436;-77
2021/09/27 04:56:05;;;;;;;42.20;20.30;;;;;;;13.63;84.17;100538.98;113954;1197;22590;-78
2021/09/27 04:58:57;;;;;;;36.30;19.80;;;;;;;13.64;84.13;100535.22;113846;1197;24330;-77
2021/09/27 05:01:50;;;;;;;32.30;18.70;;;;;;;13.67;84.05;100527.19;113779;1198;25065;-78
2021/09/27 05:04:43;;;;;;;35.60;20.40;;;;;;;13.70;84.39;100529.48;113779;1198;24172;-78
2021/09/27 05:07:47;;;;;;;36.10;20.00;;;;;;;13.72;84.30;100523.73;113557;1201;22421;-77
2021/09/27 05:10:39;;;;;;;38.90;20.40;;;;;;;13.74;84.30;100527.37;113526;1200;25051;-77
2021/09/27 05:13:29;;;;;;;36.60;21.80;;;;;;;13.75;84.38;100525.61;113470;1200;25225;-77
2021/09/27 05:16:35;;;;;;;37.30;20.30;;;;;;;13.77;84.52;100526.69;113439;1200;23764;-77
2021/09/27 05:19:38;;;;;;;37.60;22.00;;;;;;;13.79;84.63;100533.18;113449;1200;22559;-77
2021/09/27 05:22:33;;;;;;;36.70;21.40;;;;;;;13.82;84.74;100537.19;113259;1203;25130;-77
2021/09/27 05:25:27;;;;;;;41.40;21.00;;;;;;;13.84;84.74;100535.54;114816;1203;24050;-77
2021/09/27 05:28:19;;;;;;;37.10;21.00;;;;;;;13.87;84.86;100538.13;113308;1203;23565;-78
2021/09/27 05:31:07;;;;;;;39.60;22.00;;;;;;;13.90;84.86;100536.73;113149;1203;22438;-77
2021/09/27 05:33:52;;;;;;;38.30;22.10;;;;;;;13.94;84.93;100541.15;113209;1203;25548;-77
2021/09/27 05:36:47;;;;;;;36.00;21.90;;;;;;;13.98;85.01;100538.84;113206;1203;22436;-77
2021/09/27 05:39:33;;;;;;;41.60;23.90;;;;;;;14.01;84.99;100539.69;113130;1203;24176;-77
2021/09/27 05:42:16;;;;;;;41.80;22.80;;;;;;;14.04;85.20;100542.02;113277;1203;23288;-77
2021/09/27 05:45:02;;;;;;;40.60;22.60;;;;;;;14.09;85.32;100547.92;113278;1200;23599;-77
2021/09/27 05:47:45;;;;;;;38.00;23.40;;;;;;;14.12;85.31;100549.56;113364;1193;22428;-77
2021/09/27 05:50:22;;;;;;;41.20;23.00;;;;;;;14.16;85.11;100547.29;113521;1194;25246;-77
2021/09/27 05:53:03;;;;;;;40.10;23.20;;;;;;;14.21;85.35;100545.70;113475;1193;22432;-77
2021/09/27 05:55:42;;;;;;;38.10;22.40;;;;;;;14.26;85.58;100548.25;113363;1201;25111;-77
2021/09/27 05:58:19;;;;;;;39.70;23.30;;;;;;;14.29;85.67;100550.40;113640;1201;26301;-77
2021/09/27 06:01:00;;;;;;;38.00;22.80;;;;;;;14.34;85.74;100549.94;114099;1198;22456;-77
2021/09/27 06:03:53;;;;;;;34.70;21.40;;;;;;;14.39;85.46;100554.46;113870;1198;22480;-77
2021/09/27 06:06:35;;;;;;;42.10;21.90;;;;;;;14.44;85.44;100558.45;114999;1197;23987;-77
2021/09/27 06:09:19;;;;;;;41.20;24.80;;;;;;;14.50;85.55;100560.17;113780;1198;22559;-77
2021/09/27 06:12:01;;;;;;;35.10;21.50;;;;;;;14.55;85.71;100562.00;113967;1197;22447;-77
2021/09/27 06:14:37;;;;;;;41.30;21.50;;;;;;;14.59;85.41;100558.92;114228;1197;25123;-77
2021/09/27 06:17:32;;;;;;;40.40;21.60;;;;;;;14.63;85.31;100556.51;114137;1197;23078;-77
2021/09/27 06:20:11;;;;;;;37.40;21.40;;;;;;;14.67;85.34;100551.52;113860;1197;22480;-77
2021/09/27 06:22:58;;;;;;;40.30;22.70;;;;;;;14.71;85.60;100553.95;113948;1197;22408;-77
2021/09/27 06:25:35;;;;;;;38.20;22.50;;;;;;;14.74;85.58;100560.02;113911;1197;23503;-77
2021/09/27 06:28:16;;;;;;;38.80;22.10;;;;;;;14.77;85.38;100563.40;113848;1197;22636;-78
2021/09/27 06:30:54;;;;;;;40.50;21.40;;;;;;;14.80;85.70;100566.48;113877;1198;24085;-77
2021/09/27 06:33:45;;;;;;;;;;;;;;;;;;;;;
2021/09/27 06:36:21;;;;;;;40.60;22.30;;;;;;;14.85;85.70;100555.63;113820;1197;25215;-77
2021/09/27 06:38:56;;;;;;;39.90;23.60;;;;;;;14.88;85.62;100561.27;113835;1184;22471;-77
2021/09/27 06:41:31;;;;;;;37.20;22.40;;;;;;;14.92;85.64;100561.45;113818;1197;25385;-77
2021/09/27 06:44:03;;;;;;;35.30;20.90;;;;;;;14.94;85.61;100559.88;113861;1198;24199;-78
2021/09/27 06:46:34;;;;;;;39.10;21.40;;;;;;;14.98;85.67;100557.25;113883;1197;25065;-77
2021/09/27 06:49:05;;;;;;;36.60;20.30;;;;;;;15.00;85.51;100555.77;113848;1197;22547;-76
2021/09/27 06:51:41;;;;;;;31.80;19.00;;;;;;;15.03;85.55;100554.98;113870;1198;22458;-77
2021/09/27 06:54:12;;;;;;;35.70;20.10;;;;;;;15.08;85.45;100548.27;113811;1190;26410;-77
2021/09/27 06:56:45;;;;;;;36.40;19.40;;;;;;;15.12;85.33;100546.59;113892;1197;24236;-76
2021/09/27 06:59:20;;;;;;;36.50;21.00;;;;;;;15.16;85.17;100544.41;113876;1198;22408;-77
2021/09/27 07:01:52;;;;;;;40.90;21.60;;;;;;;15.20;85.24;100548.02;114193;1197;22527;-77
2021/09/27 07:04:24;;;;;;;37.10;19.20;;;;;;;15.23;85.29;100550.18;113827;1183;22547;-77
2021/09/27 07:06:54;;;;;;;35.70;21.20;;;;;;;15.27;85.16;100553.79;113828;1198;22445;-77
2021/09/27 07:09:25;;;;;;;33.70;20.10;;;;;;;15.30;85.20;100551.24;113848;1197;23296;-77
2021/09/27 07:11:56;;;;;;;35.80;19.10;;;;;;;15.32;84.99;100548.23;113826;1198;22465;-77
2021/09/27 07:14:26;;;;;;;32.40;20.00;;;;;;;15.35;84.97;100547.17;113812;1198;22465;-77
2021/09/27 07:16:57;;;;;;;32.80;18.90;;;;;;;15.36;84.86;100549.13;113926;1197;25121;-77
2021/09/27 07:19:28;;;;;;;36.50;19.10;;;;;;;15.38;84.80;100546.77;113846;1197;22492;-77
2021/09/27 07:21:59;;;;;;;38.20;20.40;;;;;;;15.40;84.93;100547.55;113824;1198;25072;-79
2021/09/27 07:24:29;;;;;;;35.30;19.90;;;;;;;15.42;84.89;100549.31;113876;1198;22588;-76
2021/09/27 07:27:00;;;;;;;67.10;42.40;;;;;;;15.46;84.72;100544.54;113810;1198;25125;-77
2021/09/27 07:29:31;;;;;;;80.30;51.70;;;;;;;15.49;84.78;100537.29;113866;1190;22423;-78
2021/09/27 07:32:03;;;;;;;134.40;86.50;;;;;;;15.55;84.77;100537.15;113928;1197;22451;-78
2021/09/27 07:34:33;;;;;;;114.60;74.00;;;;;;;15.61;84.97;100533.83;113859;1198;27062;-78
2021/09/27 07:37:04;;;;;;;62.90;37.10;;;;;;;15.66;85.13;100532.64;113881;1198;22499;-78
2021/09/27 07:39:37;;;;;;;45.00;26.70;;;;;;;15.75;85.33;100532.20;113866;1198;22450;-77
2021/09/27 07:42:08;;;;;;;36.80;21.60;;;;;;;15.83;84.95;100535.14;113933;1197;22446;-78
2021/09/27 07:44:39;;;;;;;34.80;19.90;;;;;;;15.90;84.95;100529.68;113881;1197;24157;-76
2021/09/27 07:47:12;;;;;;;62.50;36.40;;;;;;;15.99;84.90;100531.23;113879;1197;22522;-77
2021/09/27 07:49:52;;;;;;;;;;;;;;;;;;;;;
2021/09/27 07:52:24;;;;;;;41.40;24.50;;;;;;;16.15;84.47;100528.48;113928;1197;22435;-77
2021/09/27 07:54:54;;;;;;;36.40;21.30;;;;;;;16.21;84.45;100524.35;113846;1190;22440;-77
2021/09/27 07:57:28;;;;;;;34.30;19.50;;;;;;;16.29;84.35;100528.63;113871;1198;24013;-77
2021/09/27 07:59:59;;;;;;;32.40;18.80;;;;;;;16.36;84.29;100530.02;113877;1198;25118;-77
2021/09/27 08:02:30;;;;;;;31.70;17.10;;;;;;;16.45;84.35;100534.28;113834;1198;23491;-77
2021/09/27 08:05:01;;;;;;;34.00;17.70;;;;;;;16.54;84.42;100532.05;113892;1198;22815;-78
2021/09/27 08:07:32;;;;;;;33.40;18.50;;;;;;;16.63;84.25;100532.00;113867;1198;24120;-78
2021/09/27 08:10:03;;;;;;;31.30;16.30;;;;;;;16.71;84.00;100533.98;113878;1198;22843;-78
2021/09/27 08:12:36;;;;;;;32.30;18.00;;;;;;;16.77;83.90;100535.88;113883;1198;22437;-78
2021/09/27 08:15:12;;;;;;;31.00;16.70;;;;;;;16.83;83.99;100533.10;113895;1197;22436;-77
2021/09/27 08:17:44;;;;;;;33.70;18.30;;;;;;;16.93;84.04;100535.33;113939;1198;22414;-78
2021/09/27 08:20:17;;;;;;;32.40;16.60;;;;;;;17.04;83.70;100531.25;113822;1198;24573;-77
2021/09/27 08:22:50;;;;;;;32.60;15.90;;;;;;;17.11;83.30;100532.88;113872;1197;25346;-77
2021/09/27 08:25:23;;;;;;;34.30;16.90;;;;;;;17.14;83.00;100530.26;113867;1198;25022;-78
2021/09/27 08:27:56;;;;;;;32.50;16.60;;;;;;;17.17;82.92;100527.06;113946;1197;22532;-78
2021/09/27 08:30:35;;;;;;;28.60;16.30;;;;;;;17.19;82.71;100529.58;113912;1197;23123;-76
2021/09/27 08:33:06;;;;;;;32.90;17.00;;;;;;;17.19;82.50;100522.96;114045;1198;22733;-77
2021/09/27 08:35:38;;;;;;;34.50;17.80;;;;;;;17.23;82.74;100527.09;114000;1193;25231;-76
2021/09/27 08:38:11;;;;;;;32.10;17.00;;;;;;;17.28;82.68;100529.98;113886;1190;24081;-76
2021/09/27 08:40:59;;;;;;;32.00;17.30;;;;;;;17.30;82.37;100531.84;113946;1198;25121;-77
2021/09/27 08:43:47;;;;;;;27.30;16.10;;;;;;;17.33;82.22;100528.09;113944;1198;22881;-78
2021/09/27 08:46:25;;;;;;;31.10;16.30;;;;;;;17.34;81.82;100533.52;113954;1197;22436;-78
2021/09/27 08:49:03;;;;;;;30.40;17.00;;;;;;;17.36;81.87;100528.48;113866;1198;22438;-77
2021/09/27 08:51:38;;;;;;;33.60;15.50;;;;;;;17.38;82.00;100524.46;113945;1198;22470;-77
2021/09/27 08:54:14;;;;;;;29.40;16.10;;;;;;;17.43;82.05;100526.15;113907;1190;24039;-77
2021/09/27 08:56:52;;;;;;;34.80;16.80;;;;;;;17.46;81.99;100525.56;113867;1197;24665;-77
2021/09/27 08:59:50;;;;;;;28.80;15.60;;;;;;;17.49;81.70;100523.32;113909;1197;22539;-77
2021/09/27 09:02:35;;;;;;;27.20;15.00;;;;;;;17.52;81.61;100529.67;113969;1197;25094;-78
2021/09/27 09:05:20;;;;;;;28.80;15.30;;;;;;;17.55;81.47;100529.80;114134;1197;24558;-77
2021/09/27 09:08:01;;;;;;;31.40;16.40;;;;;;;17.59;81.52;100528.05;114144;1193;22435;-78
2021/09/27 09:10:45;;;;;;;27.30;16.40;;;;;;;17.64;81.63;100530.23;114143;1198;24557;-78
2021/09/27 09:13:23;;;;;;;27.60;16.50;;;;;;;17.69;81.43;100537.35;114038;1197;25243;-77
2021/09/27 09:16:02;;;;;;;29.90;16.40;;;;;;;17.75;81.59;100537.45;114102;1197;22423;-79
2021/09/27 09:18:38;;;;;;;31.30;16.50;;;;;;;17.81;81.21;100537.13;113924;1190;23223;-77
2021/09/27 09:21:18;;;;;;;30.70;17.60;;;;;;;17.86;81.11;100534.58;113894;1197;25226;-76
2021/09/27 09:23:53;;;;;;;28.40;16.10;;;;;;;17.92;80.94;100536.80;114018;1197;22481;-78
2021/09/27 09:26:30;;;;;;;30.70;17.10;;;;;;;17.94;80.59;100532.73;114083;1197;25111;-77
2021/09/27 09:29:03;;;;;;;30.80;16.20;;;;;;;17.97;80.86;100530.04;113836;1198;25324;-77
2021/09/27 09:31:43;;;;;;;29.60;17.50;;;;;;;18.02;80.76;100527.44;114016;1197;22426;-78
2021/09/27 09:34:35;;;;;;;30.80;17.00;;;;;;;18.07;80.64;100527.31;114110;1197;25170;-77
2021/09/27 09:37:13;;;;;;;30.10;18.10;;;;;;;18.12;80.60;100527.98;114357;1197;24626;-78
2021/09/27 09:40:07;;;;;;;;;;;;;;;;;;;;;
2021/09/27 09:42:38;;;;;;;30.30;17.60;;;;;;;18.28;80.24;100531.20;114276;1197;22887;-78
2021/09/27 09:45:23;;;;;;;31.70;16.90;;;;;;;18.32;80.08;100531.17;114040;1197;24552;-78
2021/09/27 09:47:53;;;;;;;27.90;16.60;;;;;;;18.38;79.90;100534.01;113949;1198;22436;-78
2021/09/27 09:50:34;;;;;;;28.80;16.90;;;;;;;18.43;79.70;100532.65;114132;1190;22503;-78
2021/09/27 09:53:21;;;;;;;32.90;18.90;;;;;;;18.47;79.76;100529.95;114112;1192;25033;-78
2021/09/27 09:56:02;;;;;;;31.30;18.00;;;;;;;18.53;79.64;100530.16;114204;1197;22571;-78
2021/09/27 09:58:42;;;;;;;29.00;17.00;;;;;;;18.59;79.12;100526.60;114147;1198;24078;-77
2021/09/27 10:01:24;;;;;;;29.00;16.80;;;;;;;18.61;79.07;100525.77;114092;1197;22761;-78
2021/09/27 10:04:04;;;;;;;28.30;16.80;;;;;;;18.65;78.83;100525.47;114097;1198;23825;-79
2021/09/27 10:06:38;;;;;;;;;;;;;;;18.67;78.89;100525.61;113912;1197;25111;-79
2021/09/27 10:09:16;;;;;;;25.30;13.00;;;;;;;18.69;78.67;100522.09;113864;1198;22463;-77
2021/09/27 10:11:54;;;;;;;30.30;17.50;;;;;;;18.70;78.46;100520.34;114009;1198;22443;-79
2021/09/27 10:14:35;;;;;;;26.70;17.00;;;;;;;18.74;78.47;100520.08;113856;1197;22418;-79
2021/09/27 10:17:30;;;;;;;31.40;17.90;;;;;;;18.78;78.31;100518.14;114070;1193;22888;-79
2021/09/27 10:20:13;;;;;;;27.90;16.90;;;;;;;18.82;78.14;100515.34;113996;1197;22414;-79
2021/09/27 10:22:55;;;;;;;29.70;17.60;;;;;;;18.88;78.02;100510.39;114011;1198;25345;-79
2021/09/27 10:25:35;;;;;;;28.20;17.30;;;;;;;18.94;78.20;100513.46;114110;1197;25026;-78
2021/09/27 10:28:08;;;;;;;29.30;16.20;;;;;;;19.00;78.03;100515.95;113875;1190;25048;-78
2021/09/27 10:30:45;;;;;;;28.90;16.80;;;;;;;19.05;77.70;100515.20;113945;1197;25677;-79
2021/09/27 10:33:20;;;;;;;31.60;17.70;;;;;;;19.07;77.62;100514.29;114051;1197;25090;-79
2021/09/27 10:35:57;;;;;;;27.60;16.60;;;;;;;19.08;77.39;100505.58;114080;1198;24084;-79
2021/09/27 10:38:40;;;;;;;31.50;18.10;;;;;;;19.11;77.38;100502.96;114044;1184;25104;-79
2021/09/27 10:41:16;;;;;;;33.30;18.60;;;;;;;19.17;77.31;100507.55;114238;1197;23995;-79
2021/09/27 10:44:03;;;;;;;29.40;17.50;;;;;;;19.23;77.26;100503.34;114119;1197;22799;-80
2021/09/27 10:46:38;;;;;;;31.20;18.20;;;;;;;19.27;76.99;100502.11;113604;1202;23280;-79
2021/09/27 10:49:16;;;;;;;29.50;19.00;;;;;;;19.30;77.04;100501.14;113467;1202;24163;-79
2021/09/27 10:51:52;;;;;;;32.80;18.70;;;;;;;19.32;76.78;100499.02;113565;1202;24037;-79
2021/09/27 10:54:41;;;;;;;31.80;18.60;;;;;;;19.34;76.67;100501.91;113638;1202;22435;-78
2021/09/27 10:57:18;;;;;;;29.20;18.60;;;;;;;19.38;76.45;100498.67;113262;1195;22476;-78
2021/09/27 11:00:04;;;;;;;30.30;18.90;;;;;;;19.40;76.40;100497.81;113295;1202;22484;-79
2021/09/27 11:02:39;;;;;;;28.70;18.90;;;;;;;19.43;76.20;100497.72;113309;1202;22446;-78
2021/09/27 11:05:42;;;;;;;32.00;19.70;;;;;;;19.43;76.15;100499.94;113638;1199;24206;-79
2021/09/27 11:08:16;;;;;;;31.60;19.60;;;;;;;19.47;76.02;100501.38;114009;1197;22435;-79
2021/09/27 11:10:50;;;;;;;34.10;18.70;;;;;;;19.47;75.85;100502.05;114040;1197;22500;-79
2021/09/27 11:13:48;;;;;;;29.70;18.70;;;;;;;19.49;75.78;100500.57;114101;1197;22425;-79
2021/09/27 11:16:35;;;;;;;30.90;19.00;;;;;;;19.52;75.83;100502.71;113728;1197;27186;-80
2021/09/27 11:19:28;;;;;;;28.90;18.10;;;;;;;19.56;75.68;100501.17;114046;1197;22442;-79
2021/09/27 11:22:21;;;;;;;32.40;19.00;;;;;;;19.58;75.52;100494.54;114124;1197;25354;-79
2021/09/27 11:25:06;;;;;;;29.90;18.40;;;;;;;19.59;75.31;100494.33;113936;1196;25083;-78
2021/09/27 11:27:40;;;;;;;30.30;19.10;;;;;;;19.60;75.36;100492.55;113869;1197;25952;-78
2021/09/27 11:30:38;;;;;;;29.80;18.10;;;;;;;19.61;75.21;100494.70;113913;1197;22466;-78
2021/09/27 11:33:40;;;;;;;31.40;19.70;;;;;;;19.62;75.10;100494.99;113978;1198;22583;-79
2021/09/27 11:36:44;;;;;;;;;;;;;;;;;;;;;
2021/09/27 11:39:34;;;;;;;32.90;20.20;;;;;;;19.64;74.95;100493.20;114155;1197;22477;-79
2021/09/27 11:42:37;;;;;;;36.50;21.40;;;;;;;19.65;74.87;100497.98;114113;1197;23436;-79
2021/09/27 11:45:29;;;;;;;36.80;21.30;;;;;;;19.62;74.56;100499.68;114254;1197;22463;-79
2021/09/27 11:48:10;;;;;;;34.20;20.30;;;;;;;19.61;74.79;100498.87;114187;1197;22449;-79
2021/09/27 11:51:05;;;;;;;36.40;21.80;;;;;;;19.62;74.59;100497.63;114127;1197;22456;-78
2021/09/27 11:53:53;;;;;;;32.10;20.40;;;;;;;19.63;74.54;100498.02;114152;1197;22451;-79
2021/09/27 11:56:31;;;;;;;31.00;19.30;;;;;;;19.65;74.44;100497.27;113929;1197;23877;-79
2021/09/27 11:59:10;;;;;;;33.00;20.30;;;;;;;19.64;74.31;100493.73;114076;1183;24081;-79
2021/09/27 12:01:51;;;;;;;35.10;20.80;;;;;;;19.63;74.34;100491.23;114180;1197;24088;-79
2021/09/27 12:04:30;;;;;;;;;;;;;;;19.61;73.96;100487.70;114071;1197;22534;-79
2021/09/27 12:07:07;;;;;;;33.20;20.50;;;;;;;19.54;74.32;100489.85;114019;1198;22652;-79
2021/09/27 12:09:45;;;;;;;32.30;19.50;;;;;;;19.52;74.22;100486.73;114089;1197;22440;-79